Hare Bay, Canada
Current Conditions -  °F | °C
As of 7:00 AM on Sunday 26 Oct 2014 (Local Time) from CYQX Reporting Station
Drizzle Drizzle  
Wind Chill: 31°   Ceiling: 300
Heat Index: 39°   Visibility: 3mi
Dew Point: 39°   Wind: 14mph
Humidity: 100%   Direction: 50°NE
Pressure: 29.57"   Gusts: 21mph
Location:  48.85°N, 54.01°W
Report Text: CYQX 260900Z 05012G18KT 3SM -DZ BR BKN003 BKN006 OVC012 04/04 A2957 RMK SF6SF1SC1 SLP019
Loading
Personal Weather Stations






























Interactive Weather Map
Tropical Storm Tracking
New forecast layout! Learn more

10-Day Weather Forecast

Advertisements
Track Severe Weather on mobile